sensor_id;sensor_type;location;lat;lon;timestamp;P1;durP1;ratioP1;P2;durP2;ratioP2
65202;SDS011;51788;45.124;38.966;2023-05-10T00:02:08;4.32;;;4.03;;
65202;SDS011;51788;45.124;38.966;2023-05-10T00:04:34;4.85;;;4.45;;
65202;SDS011;51788;45.124;38.966;2023-05-10T00:06:59;4.18;;;3.78;;
65202;SDS011;51788;45.124;38.966;2023-05-10T00:09:25;3.85;;;3.55;;
65202;SDS011;51788;45.124;38.966;2023-05-10T00:11:51;4.22;;;3.92;;
65202;SDS011;51788;45.124;38.966;2023-05-10T00:14:17;4.18;;;3.78;;
65202;SDS011;51788;45.124;38.966;2023-05-10T00:16:44;3.40;;;3.20;;
65202;SDS011;51788;45.124;38.966;2023-05-10T00:19:10;3.83;;;3.55;;
65202;SDS011;51788;45.124;38.966;2023-05-10T00:21:36;7.53;;;3.58;;
65202;SDS011;51788;45.124;38.966;2023-05-10T00:24:02;4.13;;;3.58;;
65202;SDS011;51788;45.124;38.966;2023-05-10T00:26:28;3.88;;;3.58;;
65202;SDS011;51788;45.124;38.966;2023-05-10T00:28:55;4.30;;;3.90;;
65202;SDS011;51788;45.124;38.966;2023-05-10T00:31:22;5.03;;;4.55;;
65202;SDS011;51788;45.124;38.966;2023-05-10T00:33:49;5.25;;;4.45;;
65202;SDS011;51788;45.124;38.966;2023-05-10T00:36:15;3.92;;;3.60;;
65202;SDS011;51788;45.124;38.966;2023-05-10T00:38:41;8.27;;;3.67;;
65202;SDS011;51788;45.124;38.966;2023-05-10T00:41:07;4.38;;;3.97;;
65202;SDS011;51788;45.124;38.966;2023-05-10T00:43:35;4.82;;;4.15;;
65202;SDS011;51788;45.124;38.966;2023-05-10T00:46:03;4.47;;;3.95;;
65202;SDS011;51788;45.124;38.966;2023-05-10T00:48:29;4.05;;;3.75;;
65202;SDS011;51788;45.124;38.966;2023-05-10T00:50:55;4.38;;;3.97;;
65202;SDS011;51788;45.124;38.966;2023-05-10T00:53:21;3.70;;;3.40;;
65202;SDS011;51788;45.124;38.966;2023-05-10T00:55:47;6.78;;;3.58;;
65202;SDS011;51788;45.124;38.966;2023-05-10T00:58:14;5.63;;;4.07;;
65202;SDS011;51788;45.124;38.966;2023-05-10T01:00:41;4.60;;;4.18;;
65202;SDS011;51788;45.124;38.966;2023-05-10T01:03:09;4.38;;;3.80;;
65202;SDS011;51788;45.124;38.966;2023-05-10T01:05:37;5.60;;;4.45;;
65202;SDS011;51788;45.124;38.966;2023-05-10T01:08:03;3.55;;;3.30;;
65202;SDS011;51788;45.124;38.966;2023-05-10T01:10:30;6.32;;;3.60;;
65202;SDS011;51788;45.124;38.966;2023-05-10T01:12:56;4.88;;;4.47;;
65202;SDS011;51788;45.124;38.966;2023-05-10T01:15:24;4.13;;;3.30;;
65202;SDS011;51788;45.124;38.966;2023-05-10T01:17:50;2.95;;;2.75;;
65202;SDS011;51788;45.124;38.966;2023-05-10T01:20:17;3.20;;;3.00;;
65202;SDS011;51788;45.124;38.966;2023-05-10T01:36:03;3.80;;;3.38;;
65202;SDS011;51788;45.124;38.966;2023-05-10T01:39:08;4.18;;;3.88;;
65202;SDS011;51788;45.124;38.966;2023-05-10T01:41:36;4.43;;;3.03;;
65202;SDS011;51788;45.124;38.966;2023-05-10T01:46:48;4.20;;;3.25;;
65202;SDS011;51788;45.124;38.966;2023-05-10T01:49:42;3.40;;;3.13;;
65202;SDS011;51788;45.124;38.966;2023-05-10T01:52:14;4.30;;;3.90;;
65202;SDS011;51788;45.124;38.966;2023-05-10T01:54:49;7.75;;;3.72;;
65202;SDS011;51788;45.124;38.966;2023-05-10T01:57:19;2.42;;;2.28;;
65202;SDS011;51788;45.124;38.966;2023-05-10T01:59:48;5.18;;;3.17;;
65202;SDS011;51788;45.124;38.966;2023-05-10T02:02:15;3.47;;;3.17;;
65202;SDS011;51788;45.124;38.966;2023-05-10T02:04:44;6.22;;;3.15;;
65202;SDS011;51788;45.124;38.966;2023-05-10T02:07:11;4.00;;;3.70;;
65202;SDS011;51788;45.124;38.966;2023-05-10T02:09:39;3.42;;;3.20;;
65202;SDS011;51788;45.124;38.966;2023-05-10T02:12:09;3.72;;;3.42;;
65202;SDS011;51788;45.124;38.966;2023-05-10T02:14:38;3.78;;;3.08;;
65202;SDS011;51788;45.124;38.966;2023-05-10T02:17:06;4.70;;;4.30;;
65202;SDS011;51788;45.124;38.966;2023-05-10T02:19:34;3.92;;;3.60;;
65202;SDS011;51788;45.124;38.966;2023-05-10T02:22:02;4.75;;;3.65;;
65202;SDS011;51788;45.124;38.966;2023-05-10T02:24:31;4.22;;;3.83;;
65202;SDS011;51788;45.124;38.966;2023-05-10T02:27:00;4.15;;;3.47;;
65202;SDS011;51788;45.124;38.966;2023-05-10T02:29:28;3.70;;;3.40;;
65202;SDS011;51788;45.124;38.966;2023-05-10T02:31:56;4.47;;;4.07;;
65202;SDS011;51788;45.124;38.966;2023-05-10T02:34:27;3.35;;;3.15;;
65202;SDS011;51788;45.124;38.966;2023-05-10T02:36:53;3.30;;;3.10;;
65202;SDS011;51788;45.124;38.966;2023-05-10T02:39:22;3.38;;;2.58;;
65202;SDS011;51788;45.124;38.966;2023-05-10T02:41:50;5.38;;;3.75;;
65202;SDS011;51788;45.124;38.966;2023-05-10T02:44:18;4.93;;;4.38;;
65202;SDS011;51788;45.124;38.966;2023-05-10T02:46:45;5.65;;;4.03;;
65202;SDS011;51788;45.124;38.966;2023-05-10T02:49:12;3.60;;;3.40;;
65202;SDS011;51788;45.124;38.966;2023-05-10T02:51:40;4.47;;;3.60;;
65202;SDS011;51788;45.124;38.966;2023-05-10T02:54:11;18.63;;;3.63;;
65202;SDS011;51788;45.124;38.966;2023-05-10T02:56:42;3.95;;;3.65;;
65202;SDS011;51788;45.124;38.966;2023-05-10T02:59:16;5.05;;;3.65;;
65202;SDS011;51788;45.124;38.966;2023-05-10T03:01:42;3.42;;;3.17;;
65202;SDS011;51788;45.124;38.966;2023-05-10T03:04:08;3.40;;;3.10;;
65202;SDS011;51788;45.124;38.966;2023-05-10T03:06:34;4.00;;;3.60;;
65202;SDS011;51788;45.124;38.966;2023-05-10T03:09:01;4.22;;;3.92;;
65202;SDS011;51788;45.124;38.966;2023-05-10T03:14:10;3.15;;;2.95;;
65202;SDS011;51788;45.124;38.966;2023-05-10T03:16:47;3.72;;;3.42;;
65202;SDS011;51788;45.124;38.966;2023-05-10T03:21:58;3.55;;;3.00;;
65202;SDS011;51788;45.124;38.966;2023-05-10T03:24:28;2.85;;;2.65;;
65202;SDS011;51788;45.124;38.966;2023-05-10T03:26:58;2.85;;;2.63;;
65202;SDS011;51788;45.124;38.966;2023-05-10T03:29:28;4.85;;;2.30;;
65202;SDS011;51788;45.124;38.966;2023-05-10T03:31:59;3.00;;;2.78;;
65202;SDS011;51788;45.124;38.966;2023-05-10T03:34:27;2.85;;;2.15;;
65202;SDS011;51788;45.124;38.966;2023-05-10T03:36:56;3.13;;;2.17;;
65202;SDS011;51788;45.124;38.966;2023-05-10T03:39:23;2.10;;;2.00;;
65202;SDS011;51788;45.124;38.966;2023-05-10T03:41:56;1.80;;;1.70;;
65202;SDS011;51788;45.124;38.966;2023-05-10T03:44:22;2.00;;;1.90;;
65202;SDS011;51788;45.124;38.966;2023-05-10T03:46:48;1.70;;;1.60;;
65202;SDS011;51788;45.124;38.966;2023-05-10T03:49:14;1.70;;;1.60;;
65202;SDS011;51788;45.124;38.966;2023-05-10T03:51:40;1.40;;;1.40;;
65202;SDS011;51788;45.124;38.966;2023-05-10T03:54:07;1.70;;;1.60;;
65202;SDS011;51788;45.124;38.966;2023-05-10T03:56:32;1.60;;;1.50;;
65202;SDS011;51788;45.124;38.966;2023-05-10T03:58:59;1.60;;;1.60;;
65202;SDS011;51788;45.124;38.966;2023-05-10T04:01:25;1.60;;;1.50;;
65202;SDS011;51788;45.124;38.966;2023-05-10T04:03:51;1.40;;;1.40;;
65202;SDS011;51788;45.124;38.966;2023-05-10T04:06:17;1.50;;;1.40;;
65202;SDS011;51788;45.124;38.966;2023-05-10T04:08:43;1.90;;;1.80;;
65202;SDS011;51788;45.124;38.966;2023-05-10T04:11:10;1.80;;;1.70;;
65202;SDS011;51788;45.124;38.966;2023-05-10T04:13:37;2.70;;;2.50;;
65202;SDS011;51788;45.124;38.966;2023-05-10T04:16:03;2.55;;;1.55;;
65202;SDS011;51788;45.124;38.966;2023-05-10T04:18:29;2.03;;;1.30;;
65202;SDS011;51788;45.124;38.966;2023-05-10T04:20:55;1.65;;;1.55;;
65202;SDS011;51788;45.124;38.966;2023-05-10T04:23:21;1.60;;;1.50;;
65202;SDS011;51788;45.124;38.966;2023-05-10T04:25:47;1.63;;;1.55;;
65202;SDS011;51788;45.124;38.966;2023-05-10T04:28:13;2.40;;;2.25;;
65202;SDS011;51788;45.124;38.966;2023-05-10T04:30:39;2.22;;;2.13;;
65202;SDS011;51788;45.124;38.966;2023-05-10T04:33:05;2.72;;;2.20;;
65202;SDS011;51788;45.124;38.966;2023-05-10T04:35:32;2.50;;;2.30;;
65202;SDS011;51788;45.124;38.966;2023-05-10T04:37:57;1.92;;;1.83;;
65202;SDS011;51788;45.124;38.966;2023-05-10T04:40:23;2.20;;;2.10;;
65202;SDS011;51788;45.124;38.966;2023-05-10T04:42:49;2.95;;;2.25;;
65202;SDS011;51788;45.124;38.966;2023-05-10T04:45:15;2.20;;;2.10;;
65202;SDS011;51788;45.124;38.966;2023-05-10T04:47:42;8.15;;;2.25;;
65202;SDS011;51788;45.124;38.966;2023-05-10T04:50:08;2.50;;;2.33;;
65202;SDS011;51788;45.124;38.966;2023-05-10T04:52:34;2.05;;;1.95;;
65202;SDS011;51788;45.124;38.966;2023-05-10T04:55:00;1.42;;;1.40;;
65202;SDS011;51788;45.124;38.966;2023-05-10T04:57:26;2.25;;;2.15;;
65202;SDS011;51788;45.124;38.966;2023-05-10T04:59:52;1.75;;;1.65;;
65202;SDS011;51788;45.124;38.966;2023-05-10T05:02:18;2.80;;;2.58;;
65202;SDS011;51788;45.124;38.966;2023-05-10T05:04:44;2.45;;;2.25;;
65202;SDS011;51788;45.124;38.966;2023-05-10T05:07:10;2.42;;;2.28;;
65202;SDS011;51788;45.124;38.966;2023-05-10T05:09:36;3.40;;;2.35;;
65202;SDS011;51788;45.124;38.966;2023-05-10T05:12:02;2.10;;;2.00;;
65202;SDS011;51788;45.124;38.966;2023-05-10T05:14:28;2.28;;;2.17;;
65202;SDS011;51788;45.124;38.966;2023-05-10T05:16:54;1.42;;;1.42;;
65202;SDS011;51788;45.124;38.966;2023-05-10T05:19:21;2.72;;;2.28;;
65202;SDS011;51788;45.124;38.966;2023-05-10T05:21:47;3.83;;;2.67;;
65202;SDS011;51788;45.124;38.966;2023-05-10T05:24:13;3.67;;;3.10;;
65202;SDS011;51788;45.124;38.966;2023-05-10T05:26:39;3.22;;;3.03;;
65202;SDS011;51788;45.124;38.966;2023-05-10T05:29:05;3.15;;;2.95;;
65202;SDS011;51788;45.124;38.966;2023-05-10T05:31:31;2.80;;;2.70;;
65202;SDS011;51788;45.124;38.966;2023-05-10T05:33:57;2.42;;;2.22;;
65202;SDS011;51788;45.124;38.966;2023-05-10T05:36:23;3.05;;;2.85;;
65202;SDS011;51788;45.124;38.966;2023-05-10T05:38:49;2.50;;;2.35;;
65202;SDS011;51788;45.124;38.966;2023-05-10T05:41:15;4.78;;;2.80;;
65202;SDS011;51788;45.124;38.966;2023-05-10T05:43:41;6.20;;;3.00;;
65202;SDS011;51788;45.124;38.966;2023-05-10T05:46:07;3.00;;;2.63;;
65202;SDS011;51788;45.124;38.966;2023-05-10T05:48:36;2.88;;;2.67;;
65202;SDS011;51788;45.124;38.966;2023-05-10T05:51:02;3.75;;;3.45;;
65202;SDS011;51788;45.124;38.966;2023-05-10T05:53:28;3.47;;;3.22;;
65202;SDS011;51788;45.124;38.966;2023-05-10T05:55:54;3.20;;;3.00;;
65202;SDS011;51788;45.124;38.966;2023-05-10T05:58:22;3.90;;;3.60;;
65202;SDS011;51788;45.124;38.966;2023-05-10T06:00:48;4.15;;;3.50;;
65202;SDS011;51788;45.124;38.966;2023-05-10T06:03:15;8.02;;;3.65;;
65202;SDS011;51788;45.124;38.966;2023-05-10T06:05:41;4.43;;;3.97;;
65202;SDS011;51788;45.124;38.966;2023-05-10T06:08:07;6.63;;;3.20;;
65202;SDS011;51788;45.124;38.966;2023-05-10T06:10:33;8.73;;;3.22;;
65202;SDS011;51788;45.124;38.966;2023-05-10T06:12:59;4.13;;;3.83;;
65202;SDS011;51788;45.124;38.966;2023-05-10T06:15:25;5.15;;;4.63;;
65202;SDS011;51788;45.124;38.966;2023-05-10T06:17:51;5.30;;;3.85;;
65202;SDS011;51788;45.124;38.966;2023-05-10T06:20:17;3.95;;;3.13;;
65202;SDS011;51788;45.124;38.966;2023-05-10T06:22:43;3.55;;;3.25;;
65202;SDS011;51788;45.124;38.966;2023-05-10T06:25:09;2.80;;;2.60;;
65202;SDS011;51788;45.124;38.966;2023-05-10T06:27:35;3.67;;;2.83;;
65202;SDS011;51788;45.124;38.966;2023-05-10T06:30:01;3.13;;;2.47;;
65202;SDS011;51788;45.124;38.966;2023-05-10T06:32:28;2.67;;;2.47;;
65202;SDS011;51788;45.124;38.966;2023-05-10T06:34:54;3.03;;;2.83;;
65202;SDS011;51788;45.124;38.966;2023-05-10T06:37:20;3.95;;;2.60;;
65202;SDS011;51788;45.124;38.966;2023-05-10T06:39:46;2.80;;;2.60;;
65202;SDS011;51788;45.124;38.966;2023-05-10T06:42:12;2.30;;;2.10;;
65202;SDS011;51788;45.124;38.966;2023-05-10T06:44:37;2.67;;;2.47;;
65202;SDS011;51788;45.124;38.966;2023-05-10T06:47:03;2.50;;;2.40;;
65202;SDS011;51788;45.124;38.966;2023-05-10T06:49:29;2.00;;;1.90;;
65202;SDS011;51788;45.124;38.966;2023-05-10T06:51:55;1.83;;;1.73;;
65202;SDS011;51788;45.124;38.966;2023-05-10T06:54:21;1.77;;;1.67;;
65202;SDS011;51788;45.124;38.966;2023-05-10T06:56:48;2.40;;;2.30;;
65202;SDS011;51788;45.124;38.966;2023-05-10T06:59:14;2.47;;;2.22;;
65202;SDS011;51788;45.124;38.966;2023-05-10T07:01:41;2.65;;;2.30;;
65202;SDS011;51788;45.124;38.966;2023-05-10T07:04:08;2.00;;;1.90;;
65202;SDS011;51788;45.124;38.966;2023-05-10T07:06:34;2.85;;;2.28;;
65202;SDS011;51788;45.124;38.966;2023-05-10T07:09:00;1.95;;;1.85;;
65202;SDS011;51788;45.124;38.966;2023-05-10T07:11:26;2.30;;;2.03;;
65202;SDS011;51788;45.124;38.966;2023-05-10T07:13:52;2.20;;;2.10;;
65202;SDS011;51788;45.124;38.966;2023-05-10T07:16:18;2.40;;;1.92;;
65202;SDS011;51788;45.124;38.966;2023-05-10T07:18:44;2.05;;;1.95;;
65202;SDS011;51788;45.124;38.966;2023-05-10T07:21:10;2.30;;;2.10;;
65202;SDS011;51788;45.124;38.966;2023-05-10T07:23:36;1.90;;;1.80;;
65202;SDS011;51788;45.124;38.966;2023-05-10T07:26:02;1.65;;;1.55;;
65202;SDS011;51788;45.124;38.966;2023-05-10T07:28:28;2.65;;;1.98;;
65202;SDS011;51788;45.124;38.966;2023-05-10T07:30:54;4.07;;;1.67;;
65202;SDS011;51788;45.124;38.966;2023-05-10T07:33:20;1.52;;;1.42;;
65202;SDS011;51788;45.124;38.966;2023-05-10T07:35:46;2.00;;;1.90;;
65202;SDS011;51788;45.124;38.966;2023-05-10T07:38:12;8.80;;;2.20;;
65202;SDS011;51788;45.124;38.966;2023-05-10T07:40:38;1.88;;;1.77;;
65202;SDS011;51788;45.124;38.966;2023-05-10T07:43:04;4.57;;;1.75;;
65202;SDS011;51788;45.124;38.966;2023-05-10T07:45:31;6.68;;;2.30;;
65202;SDS011;51788;45.124;38.966;2023-05-10T07:47:57;1.88;;;1.77;;
65202;SDS011;51788;45.124;38.966;2023-05-10T07:50:23;3.45;;;2.20;;
65202;SDS011;51788;45.124;38.966;2023-05-10T07:52:49;1.60;;;1.50;;
65202;SDS011;51788;45.124;38.966;2023-05-10T07:55:15;2.28;;;2.15;;
65202;SDS011;51788;45.124;38.966;2023-05-10T07:57:43;4.80;;;2.20;;
65202;SDS011;51788;45.124;38.966;2023-05-10T08:00:11;6.78;;;1.70;;
65202;SDS011;51788;45.124;38.966;2023-05-10T08:02:38;6.38;;;2.00;;
65202;SDS011;51788;45.124;38.966;2023-05-10T08:05:04;3.13;;;2.92;;
65202;SDS011;51788;45.124;38.966;2023-05-10T08:07:31;3.20;;;2.25;;
65202;SDS011;51788;45.124;38.966;2023-05-10T08:09:57;5.93;;;2.10;;
65202;SDS011;51788;45.124;38.966;2023-05-10T08:12:23;2.50;;;2.40;;
65202;SDS011;51788;45.124;38.966;2023-05-10T08:14:48;4.97;;;2.10;;
65202;SDS011;51788;45.124;38.966;2023-05-10T08:17:14;2.13;;;2.03;;
65202;SDS011;51788;45.124;38.966;2023-05-10T08:19:40;1.80;;;1.70;;
65202;SDS011;51788;45.124;38.966;2023-05-10T08:22:06;1.83;;;1.73;;
65202;SDS011;51788;45.124;38.966;2023-05-10T08:24:32;6.53;;;1.77;;
65202;SDS011;51788;45.124;38.966;2023-05-10T08:27:04;2.38;;;1.67;;
65202;SDS011;51788;45.124;38.966;2023-05-10T08:29:30;2.85;;;2.50;;
65202;SDS011;51788;45.124;38.966;2023-05-10T08:31:56;1.83;;;1.73;;
65202;SDS011;51788;45.124;38.966;2023-05-10T08:34:22;2.45;;;2.25;;
65202;SDS011;51788;45.124;38.966;2023-05-10T08:36:48;2.30;;;2.20;;
65202;SDS011;51788;45.124;38.966;2023-05-10T08:39:14;2.67;;;1.98;;
65202;SDS011;51788;45.124;38.966;2023-05-10T08:41:40;5.60;;;1.90;;
65202;SDS011;51788;45.124;38.966;2023-05-10T08:44:10;4.80;;;1.80;;
65202;SDS011;51788;45.124;38.966;2023-05-10T08:46:36;1.80;;;1.70;;
65202;SDS011;51788;45.124;38.966;2023-05-10T08:49:06;7.63;;;1.80;;
65202;SDS011;51788;45.124;38.966;2023-05-10T08:51:36;3.38;;;2.10;;
65202;SDS011;51788;45.124;38.966;2023-05-10T08:54:04;2.45;;;1.80;;
65202;SDS011;51788;45.124;38.966;2023-05-10T08:56:30;1.95;;;1.85;;
65202;SDS011;51788;45.124;38.966;2023-05-10T08:58:57;1.85;;;1.30;;
65202;SDS011;51788;45.124;38.966;2023-05-10T09:01:23;2.00;;;1.90;;
65202;SDS011;51788;45.124;38.966;2023-05-10T09:03:50;2.05;;;1.95;;
65202;SDS011;51788;45.124;38.966;2023-05-10T09:06:16;2.03;;;1.92;;
65202;SDS011;51788;45.124;38.966;2023-05-10T09:08:43;1.80;;;1.70;;
65202;SDS011;51788;45.124;38.966;2023-05-10T09:11:10;6.85;;;1.95;;
65202;SDS011;51788;45.124;38.966;2023-05-10T09:13:37;2.05;;;1.88;;
65202;SDS011;51788;45.124;38.966;2023-05-10T09:16:03;2.65;;;1.42;;
65202;SDS011;51788;45.124;38.966;2023-05-10T09:18:29;2.47;;;2.28;;
65202;SDS011;51788;45.124;38.966;2023-05-10T09:20:56;2.50;;;2.08;;
65202;SDS011;51788;45.124;38.966;2023-05-10T09:23:22;2.97;;;1.90;;
65202;SDS011;51788;45.124;38.966;2023-05-10T09:26:01;3.72;;;2.03;;
65202;SDS011;51788;45.124;38.966;2023-05-10T09:28:33;2.47;;;1.52;;
65202;SDS011;51788;45.124;38.966;2023-05-10T09:31:15;1.48;;;1.40;;
65202;SDS011;51788;45.124;38.966;2023-05-10T09:33:50;4.25;;;1.70;;
65202;SDS011;51788;45.124;38.966;2023-05-10T09:36:16;1.73;;;1.63;;
65202;SDS011;51788;45.124;38.966;2023-05-10T09:38:51;2.85;;;1.40;;
65202;SDS011;51788;45.124;38.966;2023-05-10T09:41:18;4.90;;;1.98;;
65202;SDS011;51788;45.124;38.966;2023-05-10T09:43:48;2.83;;;1.40;;
65202;SDS011;51788;45.124;38.966;2023-05-10T09:46:15;1.45;;;1.45;;
65202;SDS011;51788;45.124;38.966;2023-05-10T09:48:43;5.22;;;2.00;;
65202;SDS011;51788;45.124;38.966;2023-05-10T09:51:10;2.28;;;2.00;;
65202;SDS011;51788;45.124;38.966;2023-05-10T09:53:43;1.80;;;1.70;;
65202;SDS011;51788;45.124;38.966;2023-05-10T09:56:09;2.83;;;1.90;;
65202;SDS011;51788;45.124;38.966;2023-05-10T09:58:38;7.93;;;2.28;;
65202;SDS011;51788;45.124;38.966;2023-05-10T10:01:04;2.00;;;1.90;;
65202;SDS011;51788;45.124;38.966;2023-05-10T10:03:41;3.70;;;2.15;;
65202;SDS011;51788;45.124;38.966;2023-05-10T10:06:08;4.68;;;1.65;;
65202;SDS011;51788;45.124;38.966;2023-05-10T10:08:34;2.50;;;2.17;;
65202;SDS011;51788;45.124;38.966;2023-05-10T10:11:00;6.47;;;1.90;;
65202;SDS011;51788;45.124;38.966;2023-05-10T10:13:27;1.75;;;1.65;;
65202;SDS011;51788;45.124;38.966;2023-05-10T10:15:54;4.95;;;2.10;;
65202;SDS011;51788;45.124;38.966;2023-05-10T10:18:20;1.95;;;1.65;;
65202;SDS011;51788;45.124;38.966;2023-05-10T10:20:52;1.95;;;1.85;;
65202;SDS011;51788;45.124;38.966;2023-05-10T10:23:20;5.45;;;1.83;;
65202;SDS011;51788;45.124;38.966;2023-05-10T10:25:46;9.10;;;1.88;;
65202;SDS011;51788;45.124;38.966;2023-05-10T10:31:00;3.00;;;2.40;;
65202;SDS011;51788;45.124;38.966;2023-05-10T10:33:40;2.50;;;1.70;;
65202;SDS011;51788;45.124;38.966;2023-05-10T10:36:12;4.10;;;1.83;;
65202;SDS011;51788;45.124;38.966;2023-05-10T10:41:27;7.60;;;2.05;;
65202;SDS011;51788;45.124;38.966;2023-05-10T10:47:07;1.40;;;1.40;;
65202;SDS011;51788;45.124;38.966;2023-05-10T10:52:27;2.10;;;1.85;;
65202;SDS011;51788;45.124;38.966;2023-05-10T10:57:24;1.75;;;1.65;;
65202;SDS011;51788;45.124;38.966;2023-05-10T10:59:53;1.25;;;1.23;;
65202;SDS011;51788;45.124;38.966;2023-05-10T11:07:59;3.55;;;1.73;;
65202;SDS011;51788;45.124;38.966;2023-05-10T11:10:25;1.70;;;1.60;;
65202;SDS011;51788;45.124;38.966;2023-05-10T11:13:01;7.47;;;1.88;;
65202;SDS011;51788;45.124;38.966;2023-05-10T11:15:32;2.22;;;1.70;;
65202;SDS011;51788;45.124;38.966;2023-05-10T11:18:16;2.00;;;1.90;;
65202;SDS011;51788;45.124;38.966;2023-05-10T11:20:44;5.80;;;1.90;;
65202;SDS011;51788;45.124;38.966;2023-05-10T11:23:15;4.57;;;2.08;;
65202;SDS011;51788;45.124;38.966;2023-05-10T11:25:43;8.18;;;1.90;;
65202;SDS011;51788;45.124;38.966;2023-05-10T11:28:10;1.45;;;1.35;;
65202;SDS011;51788;45.124;38.966;2023-05-10T11:30:40;1.77;;;1.60;;
65202;SDS011;51788;45.124;38.966;2023-05-10T11:33:08;2.38;;;1.65;;
65202;SDS011;51788;45.124;38.966;2023-05-10T11:35:38;1.60;;;1.50;;
65202;SDS011;51788;45.124;38.966;2023-05-10T11:38:08;2.10;;;2.00;;
65202;SDS011;51788;45.124;38.966;2023-05-10T11:43:03;2.05;;;1.88;;
65202;SDS011;51788;45.124;38.966;2023-05-10T11:45:33;3.80;;;1.70;;
65202;SDS011;51788;45.124;38.966;2023-05-10T11:48:00;1.95;;;1.75;;
65202;SDS011;51788;45.124;38.966;2023-05-10T11:50:27;16.02;;;2.40;;
65202;SDS011;51788;45.124;38.966;2023-05-10T11:52:56;19.27;;;2.00;;
65202;SDS011;51788;45.124;38.966;2023-05-10T11:55:24;1.70;;;1.60;;
65202;SDS011;51788;45.124;38.966;2023-05-10T11:57:53;3.50;;;1.80;;
65202;SDS011;51788;45.124;38.966;2023-05-10T12:00:20;2.28;;;1.70;;
65202;SDS011;51788;45.124;38.966;2023-05-10T12:02:47;6.07;;;2.00;;
65202;SDS011;51788;45.124;38.966;2023-05-10T12:05:13;2.17;;;1.90;;
65202;SDS011;51788;45.124;38.966;2023-05-10T12:07:40;2.05;;;1.95;;
65202;SDS011;51788;45.124;38.966;2023-05-10T12:10:12;2.13;;;2.00;;
65202;SDS011;51788;45.124;38.966;2023-05-10T12:12:43;1.60;;;1.50;;
65202;SDS011;51788;45.124;38.966;2023-05-10T12:15:18;1.20;;;1.20;;
65202;SDS011;51788;45.124;38.966;2023-05-10T12:17:45;6.47;;;1.80;;
65202;SDS011;51788;45.124;38.966;2023-05-10T12:20:12;2.05;;;1.83;;
65202;SDS011;51788;45.124;38.966;2023-05-10T12:22:55;1.77;;;1.67;;
65202;SDS011;51788;45.124;38.966;2023-05-10T12:25:24;6.63;;;2.10;;
65202;SDS011;51788;45.124;38.966;2023-05-10T12:27:56;3.85;;;1.98;;
65202;SDS011;51788;45.124;38.966;2023-05-10T12:30:27;1.80;;;1.73;;
65202;SDS011;51788;45.124;38.966;2023-05-10T12:32:54;2.60;;;1.80;;
65202;SDS011;51788;45.124;38.966;2023-05-10T12:35:31;1.58;;;1.48;;
65202;SDS011;51788;45.124;38.966;2023-05-10T12:37:58;2.80;;;1.85;;
65202;SDS011;51788;45.124;38.966;2023-05-10T12:40:24;5.28;;;2.30;;
65202;SDS011;51788;45.124;38.966;2023-05-10T12:42:50;3.83;;;1.83;;
65202;SDS011;51788;45.124;38.966;2023-05-10T12:45:17;4.05;;;2.33;;
65202;SDS011;51788;45.124;38.966;2023-05-10T12:47:43;1.55;;;1.52;;
65202;SDS011;51788;45.124;38.966;2023-05-10T12:50:10;4.05;;;1.80;;
65202;SDS011;51788;45.124;38.966;2023-05-10T12:52:36;4.85;;;1.80;;
65202;SDS011;51788;45.124;38.966;2023-05-10T12:55:02;1.83;;;1.73;;
65202;SDS011;51788;45.124;38.966;2023-05-10T12:57:28;3.83;;;1.80;;
65202;SDS011;51788;45.124;38.966;2023-05-10T12:59:54;4.57;;;1.70;;
65202;SDS011;51788;45.124;38.966;2023-05-10T13:02:20;1.83;;;1.77;;
65202;SDS011;51788;45.124;38.966;2023-05-10T13:04:48;2.97;;;2.13;;
65202;SDS011;51788;45.124;38.966;2023-05-10T13:07:14;1.88;;;1.70;;
65202;SDS011;51788;45.124;38.966;2023-05-10T13:09:40;5.60;;;1.92;;
65202;SDS011;51788;45.124;38.966;2023-05-10T13:12:06;3.97;;;1.98;;
65202;SDS011;51788;45.124;38.966;2023-05-10T13:14:32;1.70;;;1.60;;
65202;SDS011;51788;45.124;38.966;2023-05-10T13:16:58;3.75;;;1.73;;
65202;SDS011;51788;45.124;38.966;2023-05-10T13:19:25;2.47;;;2.28;;
65202;SDS011;51788;45.124;38.966;2023-05-10T13:21:51;1.95;;;1.60;;
65202;SDS011;51788;45.124;38.966;2023-05-10T13:24:17;6.25;;;2.65;;
65202;SDS011;51788;45.124;38.966;2023-05-10T13:26:43;3.00;;;2.60;;
65202;SDS011;51788;45.124;38.966;2023-05-10T13:29:10;2.72;;;2.53;;
65202;SDS011;51788;45.124;38.966;2023-05-10T13:31:36;6.32;;;2.10;;
65202;SDS011;51788;45.124;38.966;2023-05-10T13:34:02;4.25;;;2.40;;
65202;SDS011;51788;45.124;38.966;2023-05-10T13:36:29;4.57;;;2.25;;
65202;SDS011;51788;45.124;38.966;2023-05-10T13:38:55;6.82;;;2.20;;
65202;SDS011;51788;45.124;38.966;2023-05-10T13:41:21;4.03;;;2.60;;
65202;SDS011;51788;45.124;38.966;2023-05-10T13:43:47;5.30;;;2.33;;
65202;SDS011;51788;45.124;38.966;2023-05-10T13:46:14;3.42;;;1.75;;
65202;SDS011;51788;45.124;38.966;2023-05-10T13:48:40;2.72;;;2.13;;
65202;SDS011;51788;45.124;38.966;2023-05-10T13:51:06;2.30;;;2.10;;
65202;SDS011;51788;45.124;38.966;2023-05-10T13:53:32;2.75;;;2.55;;
65202;SDS011;51788;45.124;38.966;2023-05-10T13:55:58;2.92;;;2.17;;
65202;SDS011;51788;45.124;38.966;2023-05-10T13:58:24;1.75;;;1.65;;
65202;SDS011;51788;45.124;38.966;2023-05-10T14:00:50;4.72;;;2.20;;
65202;SDS011;51788;45.124;38.966;2023-05-10T14:03:16;2.00;;;1.90;;
65202;SDS011;51788;45.124;38.966;2023-05-10T14:05:42;4.10;;;2.53;;
65202;SDS011;51788;45.124;38.966;2023-05-10T14:08:08;3.38;;;1.55;;
65202;SDS011;51788;45.124;38.966;2023-05-10T14:10:35;2.13;;;2.03;;
65202;SDS011;51788;45.124;38.966;2023-05-10T14:13:02;5.70;;;1.88;;
65202;SDS011;51788;45.124;38.966;2023-05-10T14:15:28;8.95;;;2.53;;
65202;SDS011;51788;45.124;38.966;2023-05-10T14:17:54;7.82;;;2.50;;
65202;SDS011;51788;45.124;38.966;2023-05-10T14:20:20;5.30;;;2.88;;
65202;SDS011;51788;45.124;38.966;2023-05-10T14:22:46;5.50;;;2.38;;
65202;SDS011;51788;45.124;38.966;2023-05-10T14:25:12;2.30;;;2.20;;
65202;SDS011;51788;45.124;38.966;2023-05-10T14:27:39;4.60;;;2.42;;
65202;SDS011;51788;45.124;38.966;2023-05-10T14:30:05;2.03;;;1.92;;
65202;SDS011;51788;45.124;38.966;2023-05-10T14:32:32;2.25;;;2.05;;
65202;SDS011;51788;45.124;38.966;2023-05-10T14:34:58;3.45;;;1.90;;
65202;SDS011;51788;45.124;38.966;2023-05-10T14:37:24;2.40;;;2.20;;
65202;SDS011;51788;45.124;38.966;2023-05-10T14:39:51;2.30;;;2.00;;
65202;SDS011;51788;45.124;38.966;2023-05-10T14:42:17;2.20;;;1.88;;
65202;SDS011;51788;45.124;38.966;2023-05-10T14:44:43;1.95;;;1.85;;
65202;SDS011;51788;45.124;38.966;2023-05-10T14:47:09;2.53;;;2.33;;
65202;SDS011;51788;45.124;38.966;2023-05-10T14:49:35;5.72;;;2.45;;
65202;SDS011;51788;45.124;38.966;2023-05-10T14:52:01;6.43;;;2.53;;
65202;SDS011;51788;45.124;38.966;2023-05-10T14:54:27;2.70;;;2.42;;
65202;SDS011;51788;45.124;38.966;2023-05-10T14:56:53;6.68;;;2.60;;
65202;SDS011;51788;45.124;38.966;2023-05-10T14:59:19;2.97;;;1.88;;
65202;SDS011;51788;45.124;38.966;2023-05-10T15:01:45;7.10;;;2.40;;
65202;SDS011;51788;45.124;38.966;2023-05-10T15:04:11;2.42;;;2.17;;
65202;SDS011;51788;45.124;38.966;2023-05-10T15:06:38;5.97;;;1.95;;
65202;SDS011;51788;45.124;38.966;2023-05-10T15:09:04;3.70;;;2.10;;
65202;SDS011;51788;45.124;38.966;2023-05-10T15:11:30;3.75;;;2.25;;
65202;SDS011;51788;45.124;38.966;2023-05-10T15:13:56;4.03;;;2.78;;
65202;SDS011;51788;45.124;38.966;2023-05-10T15:16:22;4.68;;;2.50;;
65202;SDS011;51788;45.124;38.966;2023-05-10T15:18:48;3.10;;;2.45;;